createdAt,value
2022-09-21T05:15:02.263Z,99.90
2022-09-21T05:17:35.283Z,99.90
2022-09-21T05:20:07.374Z,99.90
2022-09-21T05:22:39.045Z,99.90
2022-09-21T05:27:43.756Z,99.90
2022-09-21T05:30:16.111Z,99.90
2022-09-21T05:32:53.127Z,99.90
2022-09-21T05:35:27.595Z,99.90
2022-09-21T05:38:01.324Z,99.90
2022-09-21T05:40:33.830Z,99.90
2022-09-21T05:43:05.954Z,99.90
2022-09-21T05:45:37.727Z,99.90
2022-09-21T05:48:13.767Z,99.90
2022-09-21T05:50:49.523Z,99.90
2022-09-21T05:53:31.520Z,99.90
2022-09-21T05:56:04.396Z,99.90
2022-09-21T05:58:37.800Z,99.90
2022-09-21T06:01:17.215Z,99.90
2022-09-21T06:03:50.924Z,99.90
2022-09-21T06:06:22.538Z,99.90
2022-09-21T06:08:54.175Z,99.90
2022-09-21T06:11:25.800Z,99.90
2022-09-21T06:13:57.465Z,99.90
2022-09-21T06:16:37.112Z,99.90
2022-09-21T06:21:44.400Z,99.90
2022-09-21T06:24:16.021Z,99.90
2022-09-21T06:26:47.669Z,99.90
2022-09-21T06:29:19.429Z,99.90
2022-09-21T06:31:51.120Z,99.90
2022-09-21T06:34:24.132Z,99.90
2022-09-21T06:36:55.774Z,99.90
2022-09-21T06:39:27.407Z,99.90
2022-09-21T06:41:59.043Z,99.90
2022-09-21T08:08:57.840Z,1.00
2022-09-21T08:11:30.369Z,25.00
2022-09-21T08:14:02.778Z,99.90
2022-09-21T08:16:34.523Z,99.90
2022-09-21T08:19:06.252Z,99.90
2022-09-21T08:21:39.243Z,99.90
2022-09-21T08:24:10.902Z,99.90
2022-09-21T08:26:42.555Z,99.90
2022-09-21T08:29:14.208Z,99.90
2022-09-21T08:34:18.773Z,99.90
2022-09-21T12:06:18.106Z,1.00
2022-09-21T12:09:15.824Z,1.00
2022-09-21T12:11:50.941Z,1.00
2022-09-21T12:14:27.040Z,1.00
2022-09-21T12:17:01.804Z,99.90
2022-09-21T12:19:36.563Z,99.90
2022-09-21T13:37:33.371Z,1.00
2022-09-21T13:40:38.562Z,99.90
2022-09-21T13:45:55.379Z,91.50
2022-09-21T13:51:01.645Z,67.30
2022-09-21T13:56:08.892Z,70.80
2022-09-21T13:58:41.924Z,86.50
2022-09-21T14:01:42.309Z,90.40
2022-09-21T14:04:17.112Z,97.30
2022-09-21T14:06:49.257Z,58.90
2022-09-21T14:09:23.791Z,99.90
2022-09-21T14:11:57.010Z,99.90
2022-09-21T14:20:04.967Z,99.90
2022-09-21T14:22:40.902Z,99.90
2022-09-21T14:25:46.289Z,99.90
2022-09-21T14:28:18.764Z,99.90
2022-09-21T14:30:54.136Z,99.90
2022-09-21T14:33:32.201Z,99.90
2022-09-21T14:36:08.505Z,99.90
2022-09-21T14:38:45.529Z,99.90
2022-09-21T14:41:18.809Z,99.90
2022-09-21T14:43:52.003Z,99.90
2022-09-21T14:46:48.369Z,99.90
2022-09-21T14:49:33.544Z,99.90
2022-09-21T14:52:15.277Z,1.00
2022-09-21T14:54:55.333Z,99.90
2022-09-21T14:57:37.586Z,99.90
2022-09-21T15:00:15.427Z,99.90
2022-09-21T15:02:48.241Z,99.90
2022-09-21T15:05:22.320Z,99.90
2022-09-21T15:08:19.702Z,99.90
2022-09-21T15:10:55.515Z,99.90
2022-09-21T15:13:47.447Z,99.90
2022-09-21T15:16:26.345Z,99.90
2022-09-21T15:19:08.536Z,99.90
2022-09-21T15:21:41.267Z,99.90
2022-09-21T15:24:23.663Z,99.90
2022-09-21T15:29:30.235Z,99.90
2022-09-21T15:32:02.113Z,99.90
2022-09-21T15:34:33.781Z,99.90
2022-09-21T15:39:39.420Z,99.90
2022-09-21T15:42:17.487Z,99.90
2022-09-21T15:44:49.529Z,99.90
2022-09-21T15:47:22.248Z,99.90
2022-09-21T15:49:53.900Z,99.90
2022-09-21T15:52:29.631Z,99.90
2022-09-21T15:55:11.024Z,99.90
2022-09-21T15:57:42.752Z,99.90
2022-09-21T16:00:19.599Z,99.90
2022-09-21T16:03:00.156Z,99.90
2022-09-21T16:05:42.869Z,99.90
2022-09-21T16:08:31.168Z,99.90
2022-09-21T16:11:18.692Z,99.90
2022-09-21T16:13:58.334Z,1.00
2022-09-21T16:16:30.011Z,99.90
2022-09-21T16:19:01.740Z,99.90
2022-09-21T16:21:34.044Z,99.90
2022-09-21T16:24:09.583Z,99.90
2022-09-21T16:26:42.604Z,99.90
2022-09-21T16:29:19.719Z,99.90
2022-09-21T16:31:51.702Z,99.90
2022-09-21T16:34:30.907Z,99.90
2022-09-21T16:37:02.664Z,99.90
2022-09-21T16:39:34.327Z,99.90
2022-09-21T16:42:09.095Z,1.00
2022-09-21T16:44:40.811Z,1.00
2022-09-21T16:47:13.336Z,1.00
2022-09-21T16:49:45.049Z,1.00
2022-09-21T16:52:16.693Z,1.00
2022-09-21T16:57:21.943Z,1.00
2022-09-21T17:02:25.683Z,1.00
2022-09-21T17:04:57.408Z,1.00
2022-09-21T17:07:29.023Z,1.00
2022-09-21T17:10:00.659Z,1.00
2022-09-21T17:17:38.127Z,1.00
2022-09-21T17:20:16.081Z,1.00
2022-09-21T17:22:47.716Z,1.00
2022-09-21T17:25:19.377Z,1.00
2022-09-21T17:27:52.403Z,99.90
2022-09-21T17:30:24.288Z,42.90
2022-09-21T17:32:55.953Z,99.90
2022-09-21T17:35:31.754Z,99.90
2022-09-21T17:38:03.424Z,99.90
2022-09-21T17:40:35.967Z,99.90
2022-09-21T17:43:16.537Z,99.90
2022-09-21T17:45:49.763Z,1.00
2022-09-21T17:48:22.202Z,1.00
2022-09-21T17:50:54.464Z,1.00
2022-09-21T17:53:26.500Z,99.90
2022-09-21T17:55:59.299Z,99.90
2022-09-21T17:58:39.383Z,1.00
2022-09-21T18:01:15.682Z,1.00
2022-09-21T18:03:47.971Z,99.90
2022-09-21T18:06:20.157Z,99.90
2022-09-21T18:08:52.255Z,1.00
2022-09-21T18:11:35.167Z,99.90
2022-09-21T18:14:11.192Z,99.90
2022-09-21T18:16:45.477Z,1.00
2022-09-21T18:19:25.459Z,1.00
2022-09-21T18:21:58.908Z,1.00
2022-09-21T18:24:31.480Z,99.90
2022-09-21T18:27:03.785Z,36.10
2022-09-21T18:29:40.375Z,87.90
2022-09-21T18:32:24.714Z,99.90
2022-09-21T18:35:25.967Z,99.90
2022-09-21T18:38:04.292Z,99.90
2022-09-21T18:40:44.585Z,99.90
2022-09-21T18:43:23.208Z,1.00
2022-09-21T18:45:58.926Z,1.00
2022-09-21T18:48:38.097Z,1.00
2022-09-21T18:51:14.228Z,1.00
2022-09-21T18:53:46.889Z,1.00
2022-09-21T18:56:19.193Z,1.00
2022-09-21T18:58:51.437Z,1.00
2022-09-21T19:01:25.136Z,9.30
2022-09-21T19:03:57.481Z,4.20
2022-09-21T19:06:38.457Z,16.00
2022-09-21T19:09:21.601Z,29.30
2022-09-21T19:11:56.946Z,25.60
2022-09-21T19:14:33.286Z,36.40
2022-09-21T19:17:13.734Z,76.10
2022-09-21T19:19:52.273Z,99.90
2022-09-21T19:22:29.442Z,99.90
2022-09-21T19:25:04.752Z,99.90
2022-09-21T19:27:38.180Z,99.90
2022-09-21T19:30:10.590Z,99.90
2022-09-21T19:32:45.936Z,99.90
2022-09-21T19:35:22.185Z,99.90
2022-09-21T19:37:55.092Z,99.90
2022-09-21T19:40:28.411Z,99.90
2022-09-21T19:43:19.965Z,99.90
2022-09-21T19:46:03.721Z,99.90
2022-09-21T19:48:41.206Z,99.90
2022-09-21T19:51:18.446Z,99.90
2022-09-21T19:53:52.591Z,99.90
2022-09-21T19:56:24.244Z,99.90
2022-09-21T19:58:56.420Z,99.90
2022-09-21T20:01:28.758Z,99.90
2022-09-21T20:04:02.249Z,99.90
2022-09-21T20:06:35.627Z,99.90
2022-09-21T20:09:10.901Z,99.90
2022-09-21T20:11:44.992Z,99.90
2022-09-21T20:14:20.956Z,99.90
2022-09-21T20:16:53.636Z,99.90
2022-09-21T20:19:36.949Z,99.90
2022-09-21T20:22:11.116Z,99.90
2022-09-21T20:24:49.073Z,99.90
2022-09-21T20:27:26.203Z,99.90
2022-09-21T20:29:57.853Z,99.90
2022-09-21T20:32:29.632Z,99.90
2022-09-21T20:35:02.710Z,99.90
2022-09-21T20:37:34.413Z,99.90
2022-09-21T20:40:07.113Z,99.90
2022-09-21T20:42:38.897Z,99.90
2022-09-21T20:45:11.572Z,99.90
2022-09-21T20:47:43.213Z,99.90
2022-09-21T20:50:16.546Z,99.90
2022-09-21T20:52:48.180Z,99.90
2022-09-21T20:55:19.849Z,99.90
2022-09-21T20:57:51.491Z,99.90
2022-09-21T21:00:23.167Z,99.90
2022-09-21T21:02:56.490Z,99.90
2022-09-21T21:05:29.496Z,99.90
2022-09-21T21:08:01.530Z,99.90
2022-09-21T21:10:33.195Z,99.90
2022-09-21T21:13:04.998Z,99.90
2022-09-21T21:15:36.660Z,99.90
2022-09-21T21:18:10.098Z,99.90
2022-09-21T21:20:43.122Z,99.90
2022-09-21T21:23:14.751Z,99.90
2022-09-21T21:25:46.395Z,99.90
2022-09-21T21:28:18.023Z,99.90
2022-09-21T21:30:52.454Z,99.90
2022-09-21T21:33:24.133Z,99.90
2022-09-21T21:36:02.846Z,99.90
2022-09-21T21:38:34.503Z,99.90
2022-09-21T21:43:38.149Z,99.90
2022-09-21T21:46:10.017Z,99.90
2022-09-21T21:48:41.719Z,99.90
2022-09-21T21:51:14.708Z,99.90
2022-09-21T21:53:46.344Z,99.90
2022-09-21T21:56:18.008Z,99.90
2022-09-21T21:58:51.703Z,99.90
